Time;durP1;ratioP1;P1;durP2;ratioP2;P2;SDS_P1;SDS_P2;PMS_P1;PMS_P2;Temp;Humidity;BMP_temperature;BMP_pressure;BME280_temperature;BME280_humidity;BME280_pressure;Samples;Min_cycle;Max_cycle;Signal;HPM_P1;HPM_P2
2022/04/26 03:37:29;;;;;;;11.35;5.45;;;10.70;84.60;;;;;;5075380;28;20064;-71
2022/04/26 03:39:56;;;;;;;11.63;5.55;;;10.60;84.70;;;;;;5072435;28;20036;-71
2022/04/26 03:42:23;;;;;;;11.70;5.90;;;10.70;84.70;;;;;;5071571;28;20051;-71
2022/04/26 03:44:50;;;;;;;14.80;6.93;;;10.70;84.70;;;;;;5077275;28;20036;-71
2022/04/26 03:47:17;;;;;;;12.70;5.72;;;10.70;84.70;;;;;;5077979;28;20044;-69
2022/04/26 03:49:46;;;;;;;13.40;6.22;;;10.60;84.80;;;;;;5075875;28;20532;-70
2022/04/26 03:52:13;;;;;;;12.32;6.07;;;10.70;84.80;;;;;;5073451;28;20140;-71
2022/04/26 03:54:39;;;;;;;12.35;5.88;;;10.70;84.80;;;;;;5077871;28;20072;-70
2022/04/26 03:57:07;;;;;;;13.63;6.00;;;10.60;84.80;;;;;;5070345;28;20515;-71
2022/04/26 03:59:34;;;;;;;11.85;5.30;;;10.60;84.90;;;;;;5078781;28;20076;-71
2022/04/26 04:02:01;;;;;;;10.38;5.40;;;10.60;84.80;;;;;;5076843;28;20044;-71
2022/04/26 04:04:28;;;;;;;13.73;4.95;;;10.60;84.80;;;;;;5072533;28;20048;-70
2022/04/26 04:06:56;;;;;;;12.13;5.18;;;10.60;84.90;;;;;;5076837;28;20394;-71
2022/04/26 04:09:23;;;;;;;11.32;6.00;;;10.60;84.80;;;;;;5077841;28;20040;-70
2022/04/26 04:11:52;;;;;;;13.75;6.15;;;10.60;84.80;;;;;;5078670;28;20048;-71
2022/04/26 04:14:19;;;;;;;14.25;5.93;;;10.60;84.80;;;;;;5050595;28;20071;-71
2022/04/26 04:16:46;;;;;;;15.40;7.05;;;10.60;84.70;;;;;;5067564;28;20127;-71
2022/04/26 04:19:18;;;;;;;14.68;6.30;;;10.60;84.70;;;;;;5067005;28;20041;-70
2022/04/26 04:21:46;;;;;;;13.80;6.57;;;10.60;84.70;;;;;;5070239;28;20182;-70
2022/04/26 04:24:15;;;;;;;12.40;5.78;;;10.60;84.70;;;;;;5069275;28;20036;-71
2022/04/26 04:26:42;;;;;;;15.43;6.50;;;10.60;84.70;;;;;;5064516;28;20090;-71
2022/04/26 04:29:09;;;;;;;11.60;5.35;;;10.60;84.80;;;;;;5069018;28;20044;-70
2022/04/26 04:31:36;;;;;;;12.93;5.93;;;10.60;84.80;;;;;;5064026;28;20048;-71
2022/04/26 04:34:04;;;;;;;13.07;6.18;;;10.60;84.90;;;;;;5063922;28;20056;-69
2022/04/26 04:36:31;;;;;;;13.32;5.90;;;10.60;85.00;;;;;;5065818;28;20052;-71
2022/04/26 04:38:58;;;;;;;12.27;5.22;;;10.60;85.00;;;;;;5065716;28;20040;-70
2022/04/26 04:41:27;;;;;;;13.10;5.63;;;10.60;85.10;;;;;;5065683;28;20140;-70
2022/04/26 04:43:54;;;;;;;13.07;5.95;;;10.60;85.10;;;;;;5066778;28;20051;-71
2022/04/26 04:46:21;;;;;;;14.05;6.05;;;10.60;85.00;;;;;;5065779;28;20139;-70
2022/04/26 04:48:48;;;;;;;13.77;6.18;;;10.60;85.00;;;;;;5067928;28;20050;-71
2022/04/26 04:51:15;;;;;;;12.20;6.18;;;10.60;84.90;;;;;;5041607;28;20431;-69
2022/04/26 04:53:42;;;;;;;13.02;6.10;;;10.60;84.90;;;;;;5068120;28;20037;-70
2022/04/26 04:56:10;;;;;;;13.82;6.13;;;10.60;84.90;;;;;;5065599;28;20155;-72
2022/04/26 04:58:39;;;;;;;12.57;6.05;;;10.60;84.90;;;;;;5071515;28;20997;-70
2022/04/26 05:01:06;;;;;;;11.93;5.18;;;10.60;84.80;;;;;;5059888;28;20061;-70
2022/04/26 05:03:33;;;;;;;11.52;5.63;;;10.70;84.80;;;;;;5068066;28;20036;-71
2022/04/26 05:06:00;;;;;;;12.20;6.05;;;10.70;84.80;;;;;;5068066;28;20121;-71
2022/04/26 05:08:27;;;;;;;9.80;5.22;;;10.70;84.80;;;;;;5070575;28;20119;-71
2022/04/26 05:10:54;;;;;;;11.65;5.75;;;10.70;84.80;;;;;;5067592;28;20067;-70
2022/04/26 05:13:21;;;;;;;14.40;5.70;;;10.70;84.80;;;;;;5067969;28;20067;-70
2022/04/26 05:15:50;;;;;;;11.57;5.47;;;10.70;84.80;;;;;;5064161;28;20048;-71
2022/04/26 05:18:17;;;;;;;12.63;5.70;;;10.70;84.70;;;;;;5071536;28;20063;-71
2022/04/26 05:20:44;;;;;;;12.77;6.22;;;10.70;84.60;;;;;;5046751;28;20083;-71
2022/04/26 05:25:56;;;;;;;13.93;5.95;;;10.70;84.80;;;;;;5068015;28;20067;-71
2022/04/26 05:28:23;;;;;;;15.20;6.18;;;10.60;84.90;;;;;;5048293;28;20050;-69
2022/04/26 05:30:53;;;;;;;10.95;5.93;;;10.60;84.90;;;;;;5064062;28;20037;-71
2022/04/26 05:33:21;;;;;;;13.25;6.10;;;10.60;85.00;;;;;;5064380;28;20049;-71
2022/04/26 05:35:48;;;;;;;15.07;6.65;;;10.60;85.00;;;;;;5060143;28;20122;-71
2022/04/26 05:38:15;;;;;;;12.15;5.53;;;10.60;85.10;;;;;;5066823;28;20064;-69
2022/04/26 05:40:42;;;;;;;11.02;5.70;;;10.70;85.00;;;;;;5067724;28;20132;-71
2022/04/26 05:43:10;;;;;;;12.13;7.00;;;10.60;84.90;;;;;;5067834;28;20036;-70
2022/04/26 05:45:37;;;;;;;14.63;6.72;;;10.60;84.80;;;;;;5063781;28;20068;-71
2022/04/26 05:48:06;;;;;;;12.68;5.95;;;10.70;84.90;;;;;;5069556;28;20040;-69
2022/04/26 05:50:33;;;;;;;12.55;6.07;;;10.70;85.00;;;;;;5068418;28;20055;-70
2022/04/26 05:53:00;;;;;;;12.10;6.07;;;10.60;85.10;;;;;;5068729;28;20048;-70
2022/04/26 05:55:27;;;;;;;11.07;5.00;;;10.70;85.10;;;;;;5068005;28;20074;-70
2022/04/26 05:57:54;;;;;;;12.50;5.95;;;10.70;85.00;;;;;;5062795;28;20044;-72
2022/04/26 06:00:22;;;;;;;14.63;7.22;;;10.70;85.00;;;;;;5066471;28;20516;-70
2022/04/26 06:02:50;;;;;;;12.00;6.00;;;10.70;84.90;;;;;;5068252;28;20044;-70
2022/04/26 06:05:18;;;;;;;12.13;6.55;;;10.60;85.00;;;;;;5063769;28;20044;-71
2022/04/26 06:07:45;;;;;;;18.13;6.80;;;10.70;85.20;;;;;;5063833;28;20131;-70
2022/04/26 06:10:13;;;;;;;13.50;6.25;;;10.60;85.20;;;;;;5066338;28;20123;-71
2022/04/26 06:12:44;;;;;;;13.70;6.10;;;10.60;85.20;;;;;;5067714;28;20090;-71
2022/04/26 06:15:11;;;;;;;11.93;5.57;;;10.70;85.20;;;;;;5063791;28;20052;-71
2022/04/26 06:17:38;;;;;;;12.15;6.10;;;10.60;85.20;;;;;;5065584;28;20040;-70
2022/04/26 06:20:06;;;;;;;15.98;6.50;;;10.60;85.20;;;;;;5071129;28;20052;-71
2022/04/26 06:22:35;;;;;;;12.68;6.55;;;10.60;85.30;;;;;;5065264;28;20040;-71
2022/04/26 06:25:02;;;;;;;13.80;6.50;;;10.60;85.30;;;;;;5068714;28;20040;-69
2022/04/26 06:27:29;;;;;;;13.30;6.35;;;10.70;85.30;;;;;;5070633;28;20558;-71
2022/04/26 06:29:56;;;;;;;13.90;6.32;;;10.70;85.20;;;;;;5066274;28;20039;-71
2022/04/26 06:32:24;;;;;;;12.05;6.68;;;10.70;85.10;;;;;;5074353;28;20064;-69
2022/04/26 06:34:51;;;;;;;14.10;6.70;;;10.70;85.10;;;;;;5071300;28;20523;-71
2022/04/26 06:37:18;;;;;;;12.98;5.97;;;10.70;85.00;;;;;;5076349;28;20080;-71
2022/04/26 06:39:46;;;;;;;11.52;6.32;;;10.70;85.10;;;;;;5080365;28;20040;-70
2022/04/26 06:42:13;;;;;;;13.95;6.25;;;10.70;85.10;;;;;;5057945;28;20437;-70
2022/04/26 06:44:42;;;;;;;13.02;6.50;;;10.70;85.10;;;;;;5051009;28;20695;-70
2022/04/26 06:47:09;;;;;;;12.90;6.07;;;10.70;85.10;;;;;;5047732;28;20040;-71
2022/04/26 06:49:36;;;;;;;13.57;6.80;;;10.70;85.20;;;;;;5052081;28;20049;-70
2022/04/26 06:52:04;;;;;;;12.07;5.60;;;10.70;85.20;;;;;;5048784;28;20044;-70
2022/04/26 06:54:31;;;;;;;13.13;5.90;;;10.70;85.30;;;;;;5051307;28;20091;-70
2022/04/26 06:56:59;;;;;;;12.38;6.10;;;10.70;85.30;;;;;;5050691;28;20088;-69
2022/04/26 06:59:26;;;;;;;18.05;7.28;;;10.70;85.30;;;;;;5041071;28;20041;-71
2022/04/26 07:01:54;;;;;;;11.60;5.85;;;10.70;85.20;;;;;;5044948;28;20053;-70
2022/04/26 07:04:22;;;;;;;16.10;7.15;;;10.70;85.20;;;;;;5047104;28;20122;-70
2022/04/26 07:06:49;;;;;;;10.48;4.78;;;10.70;85.20;;;;;;5042460;28;20049;-70
2022/04/26 07:09:16;;;;;;;11.05;6.32;;;10.70;85.20;;;;;;5050719;28;20048;-71
2022/04/26 07:11:45;;;;;;;15.07;6.68;;;10.70;85.30;;;;;;5039222;28;20038;-70
2022/04/26 07:14:13;;;;;;;11.45;6.13;;;10.70;85.30;;;;;;5044824;28;20045;-72
2022/04/26 07:16:40;;;;;;;16.58;6.00;;;10.70;85.30;;;;;;5049400;28;20044;-71
2022/04/26 07:19:07;;;;;;;13.77;6.60;;;10.70;85.30;;;;;;5047180;28;20208;-71
2022/04/26 07:21:35;;;;;;;11.15;5.45;;;10.70;85.30;;;;;;5042200;28;20049;-71
2022/04/26 07:24:03;;;;;;;14.40;5.70;;;10.70;85.30;;;;;;5048981;28;20048;-70
2022/04/26 07:26:30;;;;;;;11.88;6.28;;;10.70;85.30;;;;;;5049472;28;20036;-70
2022/04/26 07:28:57;;;;;;;13.07;6.50;;;10.70;85.30;;;;;;5049147;28;20390;-72
2022/04/26 07:31:26;;;;;;;12.60;6.38;;;10.70;85.20;;;;;;5047489;28;20084;-72
2022/04/26 07:36:38;;;;;;;13.25;5.78;;;10.70;85.30;;;;;;5047056;28;20048;-71
2022/04/26 07:39:06;;;;;;;15.88;7.22;;;10.70;85.40;;;;;;5040440;28;20041;-70
2022/04/26 07:41:33;;;;;;;13.90;7.15;;;10.70;85.30;;;;;;5043248;28;20527;-71
2022/04/26 07:44:00;;;;;;;14.48;5.72;;;10.70;85.30;;;;;;5066157;28;20071;-70
2022/04/26 07:46:29;;;;;;;10.98;5.03;;;10.70;85.30;;;;;;5052102;28;20622;-71
2022/04/26 07:48:56;;;;;;;10.80;4.90;;;10.70;85.30;;;;;;5053835;28;20554;-71
2022/04/26 07:51:23;;;;;;;12.43;6.53;;;10.70;85.30;;;;;;5067371;28;20790;-71
2022/04/26 07:53:50;;;;;;;14.60;5.93;;;10.70;85.20;;;;;;5062844;28;20045;-71
2022/04/26 07:56:17;;;;;;;10.60;5.40;;;10.70;85.20;;;;;;5072177;28;20052;-71
2022/04/26 07:58:44;;;;;;;15.00;6.65;;;10.70;85.20;;;;;;5059605;28;20136;-71
2022/04/26 08:01:11;;;;;;;12.88;5.82;;;10.70;85.20;;;;;;5066736;28;20041;-68
2022/04/26 08:03:40;;;;;;;11.57;5.25;;;10.70;85.10;;;;;;5066273;28;20036;-67
2022/04/26 08:06:07;;;;;;;12.35;5.32;;;10.70;85.10;;;;;;5067887;28;20412;-68
2022/04/26 08:08:33;;;;;;;10.40;4.85;;;10.70;85.10;;;;;;5062172;28;20073;-68
2022/04/26 08:11:02;;;;;;;12.23;5.38;;;10.70;85.10;;;;;;5070479;28;20046;-68
2022/04/26 08:13:30;;;;;;;11.35;5.53;;;10.70;85.20;;;;;;5068594;28;20041;-67
2022/04/26 08:15:57;;;;;;;11.82;5.85;;;10.70;85.30;;;;;;5071377;28;20617;-66
2022/04/26 08:18:24;;;;;;;12.68;5.50;;;10.70;85.20;;;;;;5068496;28;20483;-68
2022/04/26 08:20:52;;;;;;;13.07;5.57;;;10.70;85.30;;;;;;5067641;28;20055;-67
2022/04/26 08:23:19;;;;;;;13.93;5.10;;;10.70;85.40;;;;;;5067250;28;20493;-67
2022/04/26 08:28:31;;;;;;;10.15;4.57;;;10.70;85.50;;;;;;5069315;28;20044;-67
2022/04/26 08:30:58;;;;;;;10.30;4.53;;;10.80;85.50;;;;;;5064928;28;20056;-67
2022/04/26 08:33:25;;;;;;;9.63;4.60;;;10.90;85.40;;;;;;5062399;28;20047;-68
2022/04/26 08:35:53;;;;;;;9.75;5.15;;;10.90;85.40;;;;;;5070241;28;20048;-67
2022/04/26 08:38:20;;;;;;;8.48;4.28;;;10.90;85.30;;;;;;5068927;28;20044;-67
2022/04/26 08:40:47;;;;;;;10.60;3.90;;;10.90;85.30;;;;;;5066053;28;20473;-67
2022/04/26 08:43:14;;;;;;;9.13;3.75;;;11.00;85.30;;;;;;5049928;28;20508;-66
2022/04/26 08:45:42;;;;;;;11.30;3.90;;;11.00;85.30;;;;;;5048369;28;20494;-67
2022/04/26 08:51:03;;;;;;;8.07;4.15;;;11.00;85.10;;;;;;5048802;28;20743;-66
2022/04/26 08:53:32;;;;;;;9.27;4.07;;;11.00;85.10;;;;;;5050758;28;20045;-65
2022/04/26 08:56:01;;;;;;;6.78;2.95;;;11.00;85.00;;;;;;5043101;28;20067;-68
2022/04/26 08:58:32;;;;;;;7.68;3.42;;;11.00;85.10;;;;;;5038341;28;20104;-67
2022/04/26 09:01:11;;;;;;;7.25;3.50;;;11.00;85.10;;;;;;5049692;28;20044;-68
2022/04/26 09:03:42;;;;;;;6.88;3.55;;;11.00;85.10;;;;;;5049693;28;20037;-66
2022/04/26 09:06:13;;;;;;;7.50;3.15;;;11.00;85.20;;;;;;5049685;28;20095;-67
2022/04/26 09:08:41;;;;;;;7.32;2.88;;;11.00;85.00;;;;;;5047748;28;20099;-66
2022/04/26 09:11:27;;;;;;;4.50;2.25;;;11.00;84.70;;;;;;5033272;28;20278;-68
2022/04/26 09:13:54;;;;;;;4.13;1.58;;;11.00;84.60;;;;;;5049214;28;20041;-66
2022/04/26 09:16:22;;;;;;;3.75;1.45;;;11.10;84.20;;;;;;5045666;28;20064;-65
2022/04/26 09:18:56;;;;;;;3.38;1.20;;;11.00;84.10;;;;;;5046952;28;20037;-67
2022/04/26 09:21:27;;;;;;;3.63;1.38;;;11.10;84.20;;;;;;5044907;28;20581;-64
2022/04/26 09:23:58;;;;;;;3.55;1.30;;;11.10;84.00;;;;;;5047580;28;20036;-65
2022/04/26 09:26:32;;;;;;;3.47;1.05;;;11.10;84.00;;;;;;5046041;28;20041;-64
2022/04/26 09:28:59;;;;;;;6.70;1.50;;;11.20;84.00;;;;;;5045637;28;20098;-66
2022/04/26 09:31:28;;;;;;;2.33;0.98;;;11.20;84.00;;;;;;5037870;28;20040;-66
2022/04/26 09:33:57;;;;;;;2.65;0.95;;;11.30;84.00;;;;;;5047532;28;20116;-68
2022/04/26 09:36:28;;;;;;;3.55;1.25;;;11.40;83.50;;;;;;5046768;28;20118;-68
2022/04/26 09:38:56;;;;;;;4.63;1.40;;;11.50;83.30;;;;;;5047841;28;20103;-68
2022/04/26 09:41:25;;;;;;;3.20;0.90;;;11.60;83.00;;;;;;5051853;28;20200;-68
2022/04/26 09:44:02;;;;;;;3.53;0.80;;;11.70;83.00;;;;;;5067138;28;20037;-68
2022/04/26 09:46:49;;;;;;;2.60;0.90;;;11.70;83.10;;;;;;5064334;28;20064;-68
2022/04/26 09:49:18;;;;;;;1.30;0.80;;;11.70;82.70;;;;;;5065187;28;20386;-68
2022/04/26 09:51:48;;;;;;;1.30;0.60;;;11.70;82.20;;;;;;5065417;28;20158;-68
2022/04/26 09:54:15;;;;;;;1.75;0.90;;;11.80;82.30;;;;;;5067706;28;21033;-67
2022/04/26 09:56:45;;;;;;;1.55;0.55;;;11.90;82.20;;;;;;5067895;28;20049;-68
2022/04/26 09:59:16;;;;;;;2.10;0.60;;;11.90;81.90;;;;;;5070032;28;20125;-67
2022/04/26 10:01:45;;;;;;;1.75;0.70;;;11.90;81.60;;;;;;5074838;28;20043;-68
2022/04/26 10:04:19;;;;;;;2.03;0.50;;;11.70;81.00;;;;;;5051857;28;22163;-67
2022/04/26 10:06:50;;;;;;;0.85;0.50;;;11.70;80.20;;;;;;5070175;28;20495;-68
2022/04/26 10:09:17;;;;;;;3.10;0.70;;;11.70;80.00;;;;;;5071888;28;20047;-67
2022/04/26 10:11:45;;;;;;;2.20;0.47;;;11.60;80.20;;;;;;5069974;28;20045;-68
2022/04/26 10:14:13;;;;;;;1.42;0.73;;;11.60;80.50;;;;;;5070106;28;20519;-67
2022/04/26 10:16:41;;;;;;;1.10;0.50;;;11.60;80.10;;;;;;5073854;28;20036;-67
2022/04/26 10:19:09;;;;;;;1.27;0.60;;;11.60;80.10;;;;;;5072511;28;20085;-67
2022/04/26 10:21:47;;;;;;;1.42;0.60;;;11.60;80.40;;;;;;5071039;28;20378;-68
2022/04/26 10:24:26;;;;;;;2.47;1.05;;;11.50;80.40;;;;;;5073920;28;20048;-68
2022/04/26 10:26:53;;;;;;;1.38;0.70;;;11.50;80.60;;;;;;5071622;28;20044;-67
2022/04/26 10:29:23;;;;;;;0.93;0.50;;;11.40;80.70;;;;;;5069658;28;20137;-67
2022/04/26 10:31:57;;;;;;;1.42;0.70;;;11.40;80.90;;;;;;5073809;28;20064;-67
2022/04/26 10:34:33;;;;;;;1.15;0.60;;;11.40;81.00;;;;;;5071461;28;20138;-66
2022/04/26 10:37:02;;;;;;;2.90;0.70;;;11.40;81.10;;;;;;5071104;28;20442;-66
2022/04/26 10:39:36;;;;;;;2.85;1.08;;;11.50;81.20;;;;;;5052438;28;20123;-67
2022/04/26 10:42:07;;;;;;;1.20;0.60;;;11.50;81.40;;;;;;5062570;28;20056;-68
2022/04/26 10:44:40;;;;;;;1.05;0.63;;;11.50;81.60;;;;;;5071268;28;20072;-68
2022/04/26 10:47:29;;;;;;;1.83;0.70;;;11.50;81.70;;;;;;5068296;28;20044;-67
2022/04/26 10:50:00;;;;;;;0.95;0.50;;;11.60;82.00;;;;;;5071784;28;20512;-65
2022/04/26 10:52:43;;;;;;;2.30;0.90;;;11.50;81.80;;;;;;5070632;28;20041;-68
2022/04/26 10:55:14;;;;;;;2.38;0.90;;;11.50;82.00;;;;;;5068013;28;20088;-68
2022/04/26 10:57:44;;;;;;;1.83;0.90;;;11.50;82.10;;;;;;5066630;28;20045;-67
2022/04/26 11:00:13;;;;;;;3.30;1.10;;;11.60;82.00;;;;;;5076018;28;20094;-68
2022/04/26 11:02:42;;;;;;;3.50;1.00;;;11.60;81.80;;;;;;5064936;28;20374;-68
2022/04/26 11:05:11;;;;;;;3.63;1.13;;;11.60;81.90;;;;;;5080260;28;20128;-68
2022/04/26 11:07:39;;;;;;;3.42;1.30;;;11.70;81.80;;;;;;5074994;28;20179;-67
2022/04/26 11:10:07;;;;;;;2.70;1.05;;;11.60;81.90;;;;;;5077817;28;20052;-68
2022/04/26 11:12:37;;;;;;;3.40;1.30;;;11.70;81.90;;;;;;5069440;28;20127;-68
2022/04/26 11:15:07;;;;;;;2.25;1.27;;;11.70;82.10;;;;;;5075278;28;20509;-67
2022/04/26 11:17:35;;;;;;;3.22;1.20;;;11.70;82.00;;;;;;5075487;28;20067;-66
2022/04/26 11:20:04;;;;;;;2.40;1.38;;;11.70;82.00;;;;;;5081388;28;20056;-67
2022/04/26 11:22:31;;;;;;;3.37;1.40;;;11.70;81.80;;;;;;5078798;28;20036;-67
2022/04/26 11:28:03;;;;;;;3.45;1.63;;;11.70;81.90;;;;;;5077577;28;20082;-68
2022/04/26 11:30:35;;;;;;;2.30;1.20;;;11.80;81.90;;;;;;5078348;28;20062;-68
2022/04/26 11:33:03;;;;;;;2.35;0.93;;;11.80;81.90;;;;;;5077031;28;20056;-68
2022/04/26 11:35:31;;;;;;;2.28;1.15;;;11.80;81.90;;;;;;5068739;28;20051;-68
2022/04/26 11:38:03;;;;;;;3.00;1.45;;;11.80;82.20;;;;;;5077056;28;20056;-67
2022/04/26 11:40:32;;;;;;;3.65;1.30;;;11.90;82.30;;;;;;5058778;28;20041;-67
2022/04/26 11:43:08;;;;;;;3.22;1.40;;;11.90;82.20;;;;;;5074939;28;20125;-68
2022/04/26 11:45:36;;;;;;;4.03;1.65;;;11.90;82.10;;;;;;5079287;28;20059;-68
2022/04/26 11:48:04;;;;;;;4.00;1.55;;;11.90;82.20;;;;;;5068757;28;20148;-66
2022/04/26 11:50:33;;;;;;;3.70;1.38;;;12.00;82.30;;;;;;5077530;28;20110;-69
2022/04/26 11:53:05;;;;;;;3.22;1.42;;;11.90;82.30;;;;;;5075528;28;20040;-69
2022/04/26 11:55:35;;;;;;;3.60;1.50;;;12.00;82.10;;;;;;5075939;28;20214;-67
2022/04/26 11:58:13;;;;;;;4.28;1.58;;;11.90;82.30;;;;;;5076325;28;20071;-66
2022/04/26 12:00:55;;;;;;;3.28;1.58;;;11.90;82.40;;;;;;5073433;28;20044;-67
2022/04/26 12:03:24;;;;;;;2.58;1.35;;;11.90;82.40;;;;;;5077057;28;20052;-67
2022/04/26 12:05:54;;;;;;;3.08;1.60;;;11.80;82.40;;;;;;5078342;28;20151;-67
2022/04/26 12:08:23;;;;;;;3.55;1.30;;;11.80;82.50;;;;;;5076997;28;20144;-68
2022/04/26 12:10:50;;;;;;;6.53;4.68;;;11.80;82.60;;;;;;5074466;28;20135;-68
2022/04/26 12:13:31;;;;;;;9.32;4.50;;;11.80;82.80;;;;;;5075023;28;20055;-67
2022/04/26 12:16:14;;;;;;;7.53;4.97;;;11.80;82.70;;;;;;5076366;28;20050;-67
2022/04/26 12:18:54;;;;;;;6.30;3.78;;;11.80;82.70;;;;;;5073346;28;20040;-69
2022/04/26 12:21:22;;;;;;;6.32;3.55;;;11.80;82.90;;;;;;5075888;28;20032;-67
2022/04/26 12:24:10;;;;;;;5.00;2.80;;;11.80;82.90;;;;;;5075974;28;20626;-67
2022/04/26 12:26:38;;;;;;;4.97;2.50;;;11.80;82.80;;;;;;5076567;28;20041;-67
2022/04/26 12:29:13;;;;;;;4.18;2.05;;;11.80;82.70;;;;;;5078385;28;20036;-67
2022/04/26 12:31:46;;;;;;;5.95;2.60;;;11.80;82.80;;;;;;5077607;28;20095;-67
2022/04/26 12:34:17;;;;;;;6.05;2.63;;;11.90;82.90;;;;;;5080023;28;20048;-69
2022/04/26 12:36:54;;;;;;;4.72;2.47;;;11.90;82.90;;;;;;5074830;28;20410;-68
2022/04/26 12:39:22;;;;;;;5.85;2.38;;;11.90;82.60;;;;;;5061825;28;20572;-68
2022/04/26 12:41:50;;;;;;;4.28;2.17;;;12.00;82.50;;;;;;5079716;28;20052;-67
2022/04/26 12:44:20;;;;;;;5.97;3.00;;;12.10;82.30;;;;;;5078748;28;20028;-67
2022/04/26 12:50:27;;;;;;;5.60;2.13;;;12.00;82.50;;;;;;5064524;28;20043;-68
2022/04/26 12:52:32;;;;;;;4.68;2.17;;;11.90;82.90;;;;;;5033582;28;20052;-68
2022/04/26 12:54:59;;;;;;;4.43;2.30;;;11.90;83.00;;;;;;5066566;28;20055;-68
2022/04/26 12:57:26;;;;;;;7.22;2.13;;;11.90;83.00;;;;;;5035462;28;20848;-67
2022/04/26 12:59:54;;;;;;;3.85;1.92;;;11.90;83.10;;;;;;5071076;28;20050;-68
2022/04/26 13:02:21;;;;;;;6.13;2.53;;;11.80;83.20;;;;;;5061718;28;20096;-67
2022/04/26 13:04:48;;;;;;;4.38;1.67;;;11.80;83.20;;;;;;5065930;28;20167;-67
2022/04/26 13:07:15;;;;;;;4.80;2.10;;;11.80;83.30;;;;;;5063622;28;20119;-68
2022/04/26 13:09:42;;;;;;;7.28;1.95;;;11.80;83.20;;;;;;5065976;28;20040;-67
2022/04/26 13:12:09;;;;;;;7.10;2.35;;;11.80;83.20;;;;;;5061606;28;20040;-68
2022/04/26 13:14:36;;;;;;;4.55;2.17;;;11.80;83.30;;;;;;5064542;28;20064;-67
2022/04/26 13:17:06;;;;;;;3.58;1.98;;;11.90;83.40;;;;;;5039608;28;20063;-67
2022/04/26 13:19:33;;;;;;;4.53;2.05;;;11.80;83.50;;;;;;5065365;28;20126;-68
2022/04/26 13:22:00;;;;;;;4.93;2.70;;;11.80;83.50;;;;;;5065956;28;20568;-68
2022/04/26 13:24:30;;;;;;;6.60;2.30;;;11.80;83.30;;;;;;5065359;28;20040;-68
2022/04/26 13:26:57;;;;;;;5.82;2.30;;;11.80;83.20;;;;;;5069939;28;20119;-68
2022/04/26 13:29:24;;;;;;;5.30;2.53;;;11.80;83.10;;;;;;5067362;28;20052;-68
2022/04/26 13:31:51;;;;;;;4.40;1.98;;;11.80;83.10;;;;;;5065127;28;20051;-68
2022/04/26 13:34:19;;;;;;;4.25;1.98;;;11.80;83.20;;;;;;5065026;28;20046;-68
2022/04/26 13:36:47;;;;;;;4.18;2.03;;;11.80;83.30;;;;;;5068622;28;20036;-69
2022/04/26 13:39:14;;;;;;;4.07;1.77;;;11.80;83.40;;;;;;5062710;28;20040;-68
2022/04/26 13:41:41;;;;;;;4.65;2.17;;;11.80;83.60;;;;;;5041044;28;20048;-68
2022/04/26 13:44:08;;;;;;;4.88;2.20;;;11.80;83.60;;;;;;5040101;28;20788;-68
2022/04/26 13:46:35;;;;;;;3.83;2.17;;;11.80;83.50;;;;;;5043966;28;20048;-67
2022/04/26 13:49:03;;;;;;;4.65;1.75;;;11.90;83.40;;;;;;5046635;28;20122;-68
2022/04/26 13:51:32;;;;;;;4.68;2.00;;;11.90;83.30;;;;;;5045671;28;20048;-67
2022/04/26 13:53:58;;;;;;;4.25;2.28;;;11.90;83.30;;;;;;5040854;28;20060;-68
2022/04/26 13:56:26;;;;;;;8.38;2.13;;;11.90;83.40;;;;;;5036327;28;20055;-69
2022/04/26 13:58:53;;;;;;;4.68;2.28;;;12.00;83.30;;;;;;5048422;28;20200;-67
2022/04/26 14:01:22;;;;;;;5.38;2.20;;;12.10;82.90;;;;;;5040003;28;20040;-68
2022/04/26 14:03:50;;;;;;;4.38;1.52;;;12.10;82.70;;;;;;5048035;28;20048;-67
2022/04/26 14:06:18;;;;;;;4.63;2.05;;;12.10;82.60;;;;;;5041481;28;20756;-65
2022/04/26 14:08:48;;;;;;;4.40;2.60;;;12.10;82.60;;;;;;5050979;28;20052;-67
2022/04/26 14:11:15;;;;;;;4.03;2.17;;;12.10;82.90;;;;;;5058032;28;20494;-66
2022/04/26 14:21:52;;;;;;;6.65;2.30;;;12.20;82.70;;;;;;5049605;28;20098;-65
2022/04/26 14:24:20;;;;;;;4.95;2.47;;;12.20;82.40;;;;;;5049995;28;20040;-65
2022/04/26 14:26:49;;;;;;;6.22;2.53;;;12.20;82.30;;;;;;5048410;28;20036;-68
2022/04/26 14:29:16;;;;;;;4.72;2.50;;;12.30;82.00;;;;;;5046087;28;20171;-67
2022/04/26 14:31:43;;;;;;;6.10;3.20;;;12.40;81.60;;;;;;5041629;28;20064;-69
2022/04/26 14:34:10;;;;;;;6.63;2.97;;;12.50;81.20;;;;;;5051127;28;20394;-65
2022/04/26 14:36:38;;;;;;;5.00;2.25;;;12.50;81.00;;;;;;5047223;28;20517;-67
2022/04/26 14:39:05;;;;;;;4.55;2.08;;;12.50;80.80;;;;;;5054005;28;20682;-68
2022/04/26 14:41:33;;;;;;;4.38;2.20;;;12.50;80.80;;;;;;5040069;28;20082;-66
2022/04/26 14:44:01;;;;;;;5.68;2.42;;;12.60;80.70;;;;;;5066433;28;20040;-68
2022/04/26 14:46:29;;;;;;;3.88;2.20;;;12.60;80.40;;;;;;5072915;28;20048;-66
2022/04/26 14:48:57;;;;;;;4.65;2.25;;;12.60;80.40;;;;;;5076659;28;20052;-66
2022/04/26 14:51:24;;;;;;;5.13;2.67;;;12.70;80.70;;;;;;5066158;28;20099;-67
2022/04/26 14:53:51;;;;;;;4.95;2.00;;;12.70;80.30;;;;;;5082442;28;20619;-66
2022/04/26 14:56:18;;;;;;;5.47;2.20;;;12.70;80.20;;;;;;5081930;28;20044;-67
2022/04/26 14:58:49;;;;;;;5.72;2.30;;;12.70;80.10;;;;;;5074794;28;20055;-67
2022/04/26 15:01:16;;;;;;;4.90;1.77;;;12.60;80.00;;;;;;5082159;28;20058;-66
2022/04/26 15:03:44;;;;;;;3.83;2.00;;;12.60;79.70;;;;;;5079445;28;20076;-68
2022/04/26 15:06:11;;;;;;;3.30;1.80;;;12.60;79.40;;;;;;5069325;28;20058;-67
2022/04/26 15:11:22;;;;;;;4.03;1.70;;;12.50;79.60;;;;;;5070836;28;20059;-66
2022/04/26 15:16:42;;;;;;;3.65;1.63;;;12.40;79.50;;;;;;5079454;28;20062;-66
2022/04/26 15:19:10;;;;;;;4.22;1.70;;;12.40;79.60;;;;;;5057712;28;20132;-67
2022/04/26 15:21:38;;;;;;;3.00;1.70;;;12.40;79.70;;;;;;5079079;28;20066;-67
2022/04/26 15:24:05;;;;;;;5.65;1.95;;;12.40;79.70;;;;;;5086548;28;20135;-66
2022/04/26 15:26:34;;;;;;;4.75;1.83;;;12.40;79.90;;;;;;5079267;28;20140;-68
2022/04/26 15:29:02;;;;;;;4.30;1.83;;;12.50;79.80;;;;;;5080250;28;20044;-65
2022/04/26 15:31:29;;;;;;;3.53;1.77;;;12.30;80.00;;;;;;5086604;28;20072;-67
2022/04/26 15:33:56;;;;;;;4.68;1.75;;;12.20;80.40;;;;;;5077983;28;20083;-67
2022/04/26 15:36:24;;;;;;;5.70;1.88;;;12.20;80.50;;;;;;5083213;28;20082;-66
2022/04/26 15:38:56;;;;;;;5.43;2.10;;;12.20;80.50;;;;;;5080773;28;20051;-66
2022/04/26 15:41:24;;;;;;;3.83;1.63;;;12.10;80.90;;;;;;5055758;28;20063;-67
2022/04/26 15:43:51;;;;;;;3.20;1.58;;;12.10;81.20;;;;;;5041316;28;20049;-66
2022/04/26 15:46:20;;;;;;;4.03;2.05;;;12.00;81.20;;;;;;5039330;28;20051;-66
2022/04/26 15:48:48;;;;;;;4.07;1.45;;;11.90;81.40;;;;;;5055107;28;20115;-67
2022/04/26 15:51:17;;;;;;;2.40;1.42;;;11.90;81.50;;;;;;5052990;28;20382;-66
2022/04/26 15:53:46;;;;;;;5.28;2.13;;;11.90;81.40;;;;;;5057534;28;20041;-68
2022/04/26 15:56:14;;;;;;;5.28;1.88;;;11.80;81.40;;;;;;5052743;28;20502;-67
2022/04/26 15:58:42;;;;;;;4.30;2.08;;;11.80;81.60;;;;;;5055745;28;20096;-65
2022/04/26 16:01:09;;;;;;;4.22;2.10;;;11.70;81.80;;;;;;5049981;28;20045;-67
2022/04/26 16:03:38;;;;;;;4.65;1.67;;;11.70;81.90;;;;;;5053085;28;20040;-67
2022/04/26 16:06:05;;;;;;;3.50;1.80;;;11.70;82.00;;;;;;5054120;28;20076;-66
2022/04/26 16:08:35;;;;;;;5.65;1.98;;;11.60;82.10;;;;;;5054620;28;20166;-67
2022/04/26 16:22:05;;;;;;;3.85;1.88;;;11.60;82.50;;;;;;5056606;28;20041;-66
2022/04/26 16:24:38;;;;;;;4.07;2.03;;;11.50;82.70;;;;;;5048984;28;20061;-67
2022/04/26 16:27:05;;;;;;;5.43;2.33;;;11.60;82.70;;;;;;5056547;28;20049;-67
2022/04/26 16:29:32;;;;;;;5.38;2.17;;;11.50;82.70;;;;;;5055431;28;20122;-67
2022/04/26 16:31:59;;;;;;;5.28;2.15;;;11.50;82.60;;;;;;5057445;28;20454;-68
2022/04/26 16:34:29;;;;;;;5.80;2.45;;;11.50;82.50;;;;;;5053204;28;20072;-65
2022/04/26 16:36:56;;;;;;;6.30;2.75;;;11.60;82.30;;;;;;5055027;28;20121;-68
2022/04/26 16:39:23;;;;;;;5.00;2.35;;;11.60;82.20;;;;;;5054248;28;20071;-68
2022/04/26 16:41:50;;;;;;;6.88;2.65;;;11.60;82.10;;;;;;5055155;28;20096;-66
2022/04/26 16:44:18;;;;;;;4.30;2.17;;;11.60;82.10;;;;;;5078794;28;20064;-67
2022/04/26 16:46:45;;;;;;;4.60;1.90;;;11.60;82.00;;;;;;5077206;28;20044;-68
2022/04/26 16:49:12;;;;;;;4.15;2.17;;;11.60;81.80;;;;;;5077876;28;20071;-68
2022/04/26 16:51:40;;;;;;;4.85;1.90;;;11.60;81.90;;;;;;5076440;28;20040;-66
2022/04/26 16:54:07;;;;;;;4.97;2.17;;;11.60;81.90;;;;;;5074230;28;20435;-67
2022/04/26 16:56:35;;;;;;;5.30;1.98;;;11.50;82.00;;;;;;5074349;28;20067;-67
2022/04/26 16:59:03;;;;;;;3.30;1.90;;;11.60;81.80;;;;;;5078123;28;20055;-67
2022/04/26 17:01:30;;;;;;;3.88;2.05;;;11.50;81.90;;;;;;5071257;28;20052;-67
2022/04/26 17:03:57;;;;;;;4.38;2.00;;;11.40;82.20;;;;;;5076373;28;20044;-68
2022/04/26 17:06:24;;;;;;;3.20;1.70;;;11.30;82.30;;;;;;5077738;28;20563;-68
2022/04/26 17:08:53;;;;;;;3.47;1.70;;;11.30;82.20;;;;;;5078739;28;20504;-67